| time (UTC) | temp C | wind direction | speed KPH | gust KPH | rain 1hr cm | rain 24hr cm | rain mn cm | humidity % | barometer mb |
| 20260906224541 | 17 | 93 | 0.0 | 0.0 | 0.00 | 0.58 | 0.58 | 73 | 1014.9 |
| 20260906223039 | 17 | 49 | 0.0 | 0.0 | 0.00 | 0.58 | 0.58 | 76 | 1014.8 |
| 20260906221638 | 17 | 75 | 0.0 | 6.4 | 0.00 | 0.58 | 0.58 | 73 | 1014.8 |
| 20260906220136 | 17 | 59 | 0.0 | 1.6 | 0.00 | 0.58 | 0.58 | 75 | 1014.8 |
| 20260906214537 | 17 | 23 | 0.0 | 0.0 | 0.00 | 0.58 | 0.58 | 77 | 1014.9 |
| 20260906213035 | 16 | 64 | 0.0 | 1.6 | 0.00 | 0.58 | 0.58 | 81 | 1015.3 |
| 20260906211536 | 16 | 45 | 4.8 | 14.5 | 0.00 | 0.58 | 0.58 | 82 | 1015.5 |
| 20260906210132 | 16 | 74 | 8.0 | 14.5 | 0.00 | 0.58 | 0.58 | 85 | 1015.6 |
| 20260906204615 | 15 | 69 | 0.0 | 9.7 | 0.00 | 0.58 | 0.58 | 89 | 1015.7 |
| 20260906203051 | 15 | 32 | 0.0 | 16.1 | 0.00 | 0.58 | 0.58 | 90 | 1015.8 |
| 20260906201603 | 15 | 74 | 1.6 | 19.3 | 0.00 | 0.58 | 0.58 | 92 | 1015.8 |
| 20260906200149 | 15 | 68 | 1.6 | 16.1 | 0.00 | 0.58 | 0.58 | 94 | 1015.7 |
| 20260906194550 | 14 | 50 | 0.0 | 20.9 | 0.00 | 0.58 | 0.58 | 95 | 1015.6 |
| 20260906193048 | 13 | 28 | 3.2 | 22.5 | 0.00 | 0.58 | 0.58 | 95 | 1015.3 |
| 20260906191544 | 13 | 45 | 4.8 | 24.1 | 0.03 | 0.58 | 0.58 | 95 | 1015.6 |
| 20260906190141 | 12 | 49 | 8.0 | 22.5 | 0.03 | 0.58 | 0.58 | 95 | 1015.5 |
| 20260906184548 | 12 | 67 | 0.0 | 20.9 | 0.03 | 0.58 | 0.58 | 95 | 1016.0 |
| 20260906183041 | 12 | 66 | 1.6 | 16.1 | 0.08 | 0.58 | 0.58 | 95 | 1016.5 |
| 20260906181539 | 12 | 82 | 1.6 | 14.5 | 0.13 | 0.56 | 0.56 | 95 | 1016.9 |
| 20260906180138 | 12 | 75 | 1.6 | 17.7 | 0.30 | 0.56 | 0.56 | 95 | 1017.0 |
| 20260906174539 | 12 | 84 | 0.0 | 8.0 | 0.43 | 0.56 | 0.56 | 95 | 1017.2 |
| 20260906173035 | 12 | 82 | 0.0 | 12.9 | 0.46 | 0.51 | 0.51 | 95 | 1017.7 |
| 20260906171536 | 12 | 76 | 0.0 | 3.2 | 0.41 | 0.43 | 0.43 | 95 | 1017.8 |
| 20260906170134 | 12 | 76 | 0.0 | 9.7 | 0.25 | 0.25 | 0.25 | 95 | 1017.7 |
| 20260906164536 | 12 | 74 | 0.0 | 6.4 | 0.13 | 0.13 | 0.13 | 95 | 1018.0 |
| 20260906163034 | 12 | 92 | 0.0 | 0.0 | 0.05 | 0.05 | 0.05 | 95 | 1018.5 |
| 20260906161541 | 12 | 88 | 0.0 | 0.0 | 0.03 | 0.03 | 0.03 | 95 | 1018.5 |
| 20260906160133 | 12 | 96 | 0.0 | 4.8 | 0.00 | 0.00 | 0.00 | 95 | 1018.6 |
| 20260906154600 | 12 | 101 | 0.0 | 12.9 | 0.00 | 0.00 | 0.00 | 95 | 1018.6 |
| 20260906153054 | 12 | 84 | 0.0 | 4.8 | 0.00 | 0.00 | 0.00 | 95 | 1018.2 |
| 20260906151550 | 12 | 85 | 0.0 | 14.5 | 0.00 | 0.00 | 0.00 | 95 | 1018.1 |
| 20260906150149 | 12 | 113 | 3.2 | 19.3 | 0.00 | 0.00 | 0.00 | 95 | 1017.9 |
| 20260906144549 | 12 | 71 | 1.6 | 17.7 | 0.00 | 0.00 | 0.00 | 95 | 1017.9 |
| 20260906143048 | 12 | 70 | 0.0 | 9.7 | 0.00 | 0.00 | 0.00 | 95 | 1017.7 |
| 20260906141556 | 12 | 56 | 0.0 | 9.7 | 0.00 | 0.00 | 0.00 | 95 | 1017.5 |
| 20260906140144 | 12 | 55 | 0.0 | 0.0 | 0.00 | 0.00 | 0.00 | 95 | 1017.5 |
| 20260906134546 | 11 | 42 | 1.6 | 11.3 | 0.00 | 0.00 | 0.00 | 95 | 1017.8 |
| 20260906133145 | 12 | 42 | 0.0 | 0.0 | 0.00 | 0.00 | 0.00 | 94 | 1018.0 |
| 20260906131544 | 12 | 32 | 0.0 | 0.0 | 0.00 | 0.00 | 0.00 | 94 | 1018.1 |
| 20260906130144 | 12 | 32 | 0.0 | 0.0 | 0.00 | 0.00 | 0.00 | 94 | 1018.3 |
| 20260906124540 | 11 | 32 | 0.0 | 0.0 | 0.00 | 0.00 | 0.00 | 94 | 1018.4 |
| 20260906123044 | 11 | 32 | 0.0 | 0.0 | 0.00 | 0.00 | 0.00 | 94 | 1018.1 |
| 20260906121538 | 11 | 19 | 0.0 | 1.6 | 0.00 | 0.00 | 0.00 | 94 | 1017.6 |
| 20260906120151 | 11 | 5 | 0.0 | 6.4 | 0.00 | 0.00 | 0.00 | 94 | 1017.5 |
| 20260906114547 | 11 | 11 | 0.0 | 0.0 | 0.00 | 0.00 | 0.00 | 94 | 1017.9 |
| 20260906113038 | 11 | 309 | 0.0 | 1.6 | 0.00 | 0.00 | 0.00 | 94 | 1018.5 |
| 20260906111546 | 11 | 309 | 0.0 | 0.0 | 0.00 | 0.00 | 0.00 | 94 | 1019.0 |
| 20260906110137 | 11 | 309 | 0.0 | 0.0 | 0.00 | 0.00 | 0.00 | 94 | 1019.0 |
| 20260906104542 | 11 | 317 | 0.0 | 0.0 | 0.00 | 0.00 | 0.00 | 94 | 1018.6 |
| 20260906103045 | 11 | 295 | 0.0 | 3.2 | 0.00 | 0.00 | 0.00 | 94 | 1018.8 |
| 20260906101536 | 11 | 226 | 3.2 | 17.7 | 0.00 | 0.00 | 0.00 | 94 | 1019.2 |
| 20260906100133 | 11 | 90 | 1.6 | 16.1 | 0.00 | 0.00 | 0.00 | 94 | 1018.6 |
| 20260906094549 | 11 | 79 | 11.3 | 20.9 | 0.00 | 0.00 | 0.00 | 94 | 1018.3 |
| 20260906093040 | 11 | 59 | 0.0 | 6.4 | 0.00 | 0.00 | 0.00 | 94 | 1018.9 |
| 20260906091537 | 11 | 323 | 0.0 | 0.0 | 0.00 | 0.00 | 0.00 | 93 | 1019.6 |
| 20260906090131 | 11 | 271 | 0.0 | 4.8 | 0.00 | 0.00 | 0.00 | 93 | 1020.1 |
| 20260906084556 | 11 | 293 | 0.0 | 3.2 | 0.00 | 0.00 | 0.00 | 93 | 1020.4 |
| 20260906083051 | 11 | 308 | 0.0 | 0.0 | 0.00 | 0.00 | 0.00 | 93 | 1020.3 |
| 20260906081550 | 11 | 316 | 0.0 | 0.0 | 0.00 | 0.00 | 0.00 | 92 | 1020.5 |
| 20260906080147 | 11 | 316 | 0.0 | 0.0 | 0.00 | 0.00 | 0.00 | 92 | 1020.5 |
| 20260906074551 | 11 | 316 | 0.0 | 0.0 | 0.00 | 0.00 | 0.00 | 93 | 1020.5 |
| 20260906073051 | 11 | 316 | 0.0 | 1.6 | 0.00 | 0.00 | 0.00 | 93 | 1020.5 |
| 20260906071546 | 11 | 308 | 0.0 | 1.6 | 0.00 | 0.00 | 0.00 | 93 | 1020.5 |
| 20260906070145 | 11 | 339 | 0.0 | 6.4 | 0.00 | 0.00 | 0.00 | 92 | 1020.5 |
| 20260906064547 | 11 | 326 | 0.0 | 0.0 | 0.00 | 0.00 | 0.00 | 92 | 1020.4 |
| 20260906063047 | 11 | 309 | 0.0 | 0.0 | 0.00 | 0.00 | 0.00 | 92 | 1020.4 |
| 20260906061547 | 11 | 331 | 0.0 | 0.0 | 0.00 | 0.00 | 0.00 | 92 | 1020.2 |
| 20260906060141 | 11 | 321 | 0.0 | 3.2 | 0.00 | 0.00 | 0.00 | 92 | 1020.2 |
| 20260906054559 | 11 | 333 | 0.0 | 8.0 | 0.00 | 0.00 | 0.00 | 92 | 1020.1 |
| 20260906053041 | 11 | 355 | 0.0 | 4.8 | 0.00 | 0.00 | 0.00 | 92 | 1020.0 |
| 20260906051541 | 11 | 17 | 0.0 | 3.2 | 0.00 | 0.00 | 0.00 | 92 | 1020.0 |
| 20260906050141 | 11 | 306 | 0.0 | 8.0 | 0.00 | 0.00 | 0.00 | 92 | 1020.0 |
| 20260906044540 | 11 | 10 | 0.0 | 3.2 | 0.00 | 0.00 | 0.00 | 91 | 1019.9 |
| 20260906043039 | 11 | 10 | 0.0 | 6.4 | 0.00 | 0.00 | 0.00 | 91 | 1019.9 |
| 20260906041538 | 11 | 24 | 0.0 | 1.6 | 0.00 | 0.00 | 0.00 | 91 | 1019.9 |
| 20260906040137 | 11 | 9 | 0.0 | 0.0 | 0.00 | 0.00 | 0.00 | 91 | 1019.4 |
| 20260906034547 | 11 | 340 | 0.0 | 0.0 | 0.00 | 0.00 | 0.00 | 89 | 1019.4 |
| 20260906033038 | 11 | 330 | 0.0 | 0.0 | 0.00 | 0.00 | 0.00 | 89 | 1019.6 |
| 20260906031602 | 12 | 333 | 0.0 | 0.0 | 0.00 | 0.00 | 0.00 | 88 | 1019.5 |
| 20260906030135 | 12 | 5 | 0.0 | 0.0 | 0.00 | 0.00 | 0.00 | 88 | 1019.4 |
| 20260906024553 | 13 | 22 | 0.0 | 14.5 | 0.00 | 0.00 | 0.00 | 87 | 1019.1 |
| 20260906023034 | 13 | 23 | 0.0 | 3.2 | 0.00 | 0.00 | 0.00 | 85 | 1018.8 |
| 20260906021531 | 13 | 30 | 0.0 | 17.7 | 0.00 | 0.00 | 0.00 | 83 | 1018.8 |
| 20260906020130 | 14 | 26 | 0.0 | 9.7 | 0.00 | 0.00 | 0.00 | 81 | 1018.8 |
| 20260906014553 | 15 | 343 | 4.8 | 12.9 | 0.00 | 0.00 | 0.00 | 78 | 1018.5 |
| 20260906013050 | 16 | 355 | 0.0 | 8.0 | 0.00 | 0.00 | 0.00 | 76 | 1018.4 |
| 20260906011550 | 16 | 325 | 1.6 | 9.7 | 0.00 | 0.00 | 0.00 | 75 | 1018.5 |
| 20260906010147 | 16 | 323 | 0.0 | 1.6 | 0.00 | 0.00 | 0.00 | 74 | 1018.5 |
| 20260906004546 | 17 | 11 | 0.0 | 1.6 | 0.00 | 0.00 | 0.00 | 74 | 1018.5 |
| 20260906003046 | 16 | 314 | 0.0 | 8.0 | 0.00 | 0.00 | 0.00 | 76 | 1018.5 |
| 20260906001546 | 16 | 323 | 0.0 | 4.8 | 0.00 | 0.00 | 0.00 | 76 | 1018.5 |
| 20260906000147 | 16 | 355 | 0.0 | 4.8 | 0.00 | 0.00 | 0.00 | 75 | 1018.4 |
| 20260905234550 | 16 | 5 | 0.0 | 8.0 | 0.00 | 0.00 | 0.00 | 75 | 1018.5 |
| 20260905233047 | 16 | 23 | 0.0 | 12.9 | 0.00 | 0.00 | 0.00 | 75 | 1018.3 |
| 20260905231546 | 16 | 35 | 0.0 | 4.8 | 0.00 | 0.00 | 0.00 | 74 | 1018.2 |
| 20260905230142 | 16 | 35 | 0.0 | 0.0 | 0.00 | 0.00 | 0.00 | 74 | 1018.1 |